Dayton, OH (45402)

5:10 PM EDT on August 30, 2016 (GMT -0400)
Sinclair Dayton Campus | | Change Station

Elev 780 ft 39.76 °N, 84.20 °W | Updated 5 seconds ago

Clear
Clear
91.8 °F
Feels Like 93 °F
N
5.8
Wind Variable Wind from South
Gusts 5.8 mph

Today
High -- | Low -- °F
--% Chance of Precip.
Yesterday
High -- | Low -- °F
Precip. -- in
Pressure 30.06 in
Visibility 10.0 miles
Clouds Clear
Heat Index 93 °F
Dew Point 63 °F
Humidity 38%
Rainfall 0.00 in
Snow Depth Not available.
7:03 AM 8:10 PM
Waning Crescent, 2% visible
METAR KFFO 302058Z AUTO 08006KT 10SM CLR 31/16 A3007 RMK AO2 SLP179 T03080161 57021
Pressure 30.06 in
Visibility 10.0 miles
Clouds Clear
Heat Index 93 °F
Dew Point 63 °F
Humidity 38%
Rainfall 0.00 in
Snow Depth Not available.
7:03 AM 8:10 PM
Waning Crescent, 2% visible
METAR KFFO 302058Z AUTO 08006KT 10SM CLR 31/16 A3007 RMK AO2 SLP179 T03080161 57021

10-Day Weather Forecast

Almanac

Astronomy

Aug. 30, 2016 Rise Set
Actual Time
Civil Twilight
Nautical Twilight
Astronomical Twilight
Moon
Length of Visible Light
Length of Day
Tomorrow will be .
, % of the Moon is Illuminated

Today's Extremes

State Highs State Lows

Community

WunderPhotos

Upload Photos

1,935,894 photos uploaded!

WunderBlog® & News

Nearby

Air Quality

  Air Quality AQ Index Pollutant
Not available.

Snow Depth

Station Depth Elevation

Earthquake Activity

City Distance Mag. Time & Date
Minimum magnitude displayed is 2.5.

Coastal Water Temperatures

Place Temperature

Stations

Nearby Weather Stations

Station Location Temp. Windchill Dew Point Humidity Wind Precip. Elev Updated Type
                   

Watches & Warnings

There are currently no watches in effect.